createdAt,value
2023-05-01T00:04:47.167Z,6.87
2023-05-01T00:09:49.008Z,7.10
2023-05-01T00:14:50.801Z,7.67
2023-05-01T00:19:55.424Z,8.67
2023-05-01T00:24:57.333Z,9.20
2023-05-01T00:30:01.803Z,9.03
2023-05-01T00:35:05.801Z,9.43
2023-05-01T00:40:09.726Z,9.27
2023-05-01T00:45:11.807Z,9.27
2023-05-01T00:50:16.000Z,9.73
2023-05-01T00:55:20.309Z,9.80
2023-05-01T01:00:25.076Z,9.27
2023-05-01T01:05:41.118Z,10.30
2023-05-01T01:10:59.516Z,11.47
2023-05-01T01:16:10.343Z,11.43
2023-05-01T01:21:22.791Z,11.67
2023-05-01T01:26:49.661Z,12.60
2023-05-01T01:31:59.502Z,12.07
2023-05-01T01:37:10.646Z,12.77
2023-05-01T01:42:18.886Z,14.60
2023-05-01T01:47:28.320Z,13.60
2023-05-01T01:52:37.860Z,15.30
2023-05-01T01:57:43.157Z,15.60
2023-05-01T02:02:45.672Z,17.20
2023-05-01T02:07:50.860Z,15.37
2023-05-01T02:12:56.393Z,16.47
2023-05-01T02:18:00.903Z,17.47
2023-05-01T02:23:05.806Z,19.37
2023-05-01T02:28:10.721Z,20.20
2023-05-01T02:33:12.944Z,18.27
2023-05-01T02:38:15.585Z,17.33
2023-05-01T02:43:22.576Z,16.10
2023-05-01T02:48:29.705Z,17.40
2023-05-01T02:53:34.653Z,16.67
2023-05-01T02:58:44.885Z,16.83
2023-05-01T03:03:46.994Z,16.53
2023-05-01T03:08:48.851Z,15.17
2023-05-01T03:13:55.377Z,14.10
2023-05-01T03:18:57.096Z,13.47
2023-05-01T03:24:01.152Z,14.57
2023-05-01T03:29:08.624Z,15.13
2023-05-01T03:34:12.844Z,15.30
2023-05-01T03:39:19.523Z,14.63
2023-05-01T03:44:42.212Z,14.23
2023-05-01T03:49:44.216Z,14.67
2023-05-01T03:54:46.550Z,15.80
2023-05-01T04:00:15.029Z,14.20
2023-05-01T04:05:21.575Z,14.47
2023-05-01T04:10:28.194Z,16.23
2023-05-01T04:15:37.123Z,13.73
2023-05-01T04:20:40.305Z,14.07
2023-05-01T04:25:42.208Z,13.33
2023-05-01T04:30:50.030Z,12.80
2023-05-01T04:35:54.226Z,14.33
2023-05-01T04:40:56.318Z,12.13
2023-05-01T04:46:00.628Z,11.83
2023-05-01T04:51:05.430Z,11.50
2023-05-01T04:56:09.025Z,11.23
2023-05-01T05:01:12.870Z,10.60
2023-05-01T05:06:14.764Z,10.67
2023-05-01T05:11:16.541Z,9.30
2023-05-01T05:16:34.677Z,10.27
2023-05-01T05:21:39.120Z,8.43
2023-05-01T05:26:42.936Z,8.50
2023-05-01T05:31:47.376Z,8.23
2023-05-01T05:36:49.888Z,7.70
2023-05-01T05:41:57.155Z,8.50
2023-05-01T05:47:01.077Z,8.23
2023-05-01T05:52:08.585Z,7.97
2023-05-01T05:57:14.330Z,7.60
2023-05-01T06:02:22.665Z,5.97
2023-05-01T06:07:28.308Z,6.30
2023-05-01T06:12:30.652Z,6.07
2023-05-01T06:17:40.800Z,6.57
2023-05-01T06:22:42.612Z,6.20
2023-05-01T06:27:54.126Z,5.90
2023-05-01T06:32:58.667Z,6.10
2023-05-01T06:38:00.476Z,6.67
2023-05-01T06:43:03.333Z,5.70
2023-05-01T06:48:07.927Z,6.47
2023-05-01T06:53:12.078Z,5.90
2023-05-01T06:58:24.136Z,6.27
2023-05-01T07:03:29.324Z,5.17
2023-05-01T07:08:31.653Z,5.00
2023-05-01T07:13:33.772Z,4.83
2023-05-01T07:18:35.928Z,5.57
2023-05-01T07:23:38.650Z,5.30
2023-05-01T07:28:41.928Z,4.47
2023-05-01T07:33:44.260Z,4.75
2023-05-01T07:38:46.089Z,4.90
2023-05-01T07:43:50.016Z,4.63
2023-05-01T07:48:54.197Z,4.57
2023-05-01T07:53:59.123Z,4.88
2023-05-01T07:59:03.036Z,4.70
2023-05-01T08:04:05.183Z,4.85
2023-05-01T08:09:07.394Z,4.93
2023-05-01T08:14:09.373Z,4.78
2023-05-01T08:19:14.202Z,4.90
2023-05-01T08:24:18.336Z,5.38
2023-05-01T08:29:25.758Z,4.88
2023-05-01T08:34:27.460Z,4.97
2023-05-01T08:39:29.307Z,5.13
2023-05-01T08:44:38.225Z,5.13
2023-05-01T08:49:42.970Z,4.55
2023-05-01T08:54:46.961Z,5.50
2023-05-01T08:59:53.505Z,4.95
2023-05-01T09:05:00.058Z,4.95
2023-05-01T09:10:01.938Z,4.68
2023-05-01T09:15:07.720Z,4.38
2023-05-01T09:20:10.544Z,4.60
2023-05-01T09:25:14.938Z,4.22
2023-05-01T09:30:32.723Z,4.50
2023-05-01T09:35:57.156Z,4.55
2023-05-01T09:41:04.379Z,4.35
2023-05-01T09:46:10.825Z,3.53
2023-05-01T09:51:29.154Z,4.18
2023-05-01T09:56:34.278Z,3.95
2023-05-01T10:01:42.903Z,3.65
2023-05-01T10:06:49.611Z,4.50
2023-05-01T10:11:53.694Z,5.20
2023-05-01T10:16:58.053Z,4.65
2023-05-01T10:22:02.465Z,3.75
2023-05-01T10:27:06.771Z,4.70
2023-05-01T10:32:11.312Z,4.05
2023-05-01T10:37:26.299Z,4.00
2023-05-01T10:42:28.975Z,3.75
2023-05-01T10:47:34.860Z,3.72
2023-05-01T10:53:14.737Z,3.53
2023-05-01T10:58:39.181Z,3.72
2023-05-01T11:03:43.001Z,4.18
2023-05-01T11:08:46.426Z,4.40
2023-05-01T11:13:57.521Z,3.83
2023-05-01T11:19:06.286Z,4.32
2023-05-01T11:24:13.176Z,3.63
2023-05-01T11:29:17.396Z,3.75
2023-05-01T11:34:19.168Z,4.43
2023-05-01T11:39:22.133Z,3.55
2023-05-01T11:44:23.906Z,3.25
2023-05-01T11:49:28.734Z,2.58
2023-05-01T11:54:47.531Z,2.38
2023-05-01T11:59:51.296Z,2.53
2023-05-01T12:04:54.021Z,2.63
2023-05-01T12:09:58.514Z,2.53
2023-05-01T12:15:03.648Z,2.13
2023-05-01T12:20:06.156Z,2.50
2023-05-01T12:25:08.428Z,3.47
2023-05-01T12:30:15.041Z,3.90
2023-05-01T12:35:16.973Z,4.00
2023-05-01T12:40:23.832Z,3.50
2023-05-01T12:45:25.718Z,3.03
2023-05-01T12:50:27.891Z,4.10
2023-05-01T12:55:29.751Z,3.40
2023-05-01T13:00:42.483Z,2.90
2023-05-01T13:05:55.620Z,2.60
2023-05-01T13:11:01.311Z,2.55
2023-05-01T13:16:09.136Z,3.05
2023-05-01T13:21:16.344Z,2.75
2023-05-01T13:26:18.316Z,2.75
2023-05-01T13:31:22.355Z,3.00
2023-05-01T13:36:26.423Z,2.65
2023-05-01T13:41:35.187Z,2.35
2023-05-01T13:46:37.006Z,2.35
2023-05-01T13:51:42.984Z,2.60
2023-05-01T13:56:44.734Z,2.10
2023-05-01T14:01:47.516Z,6.38
2023-05-01T14:06:51.662Z,4.78
2023-05-01T14:11:53.979Z,3.50
2023-05-01T14:16:58.122Z,2.85
2023-05-01T14:22:02.237Z,4.72
2023-05-01T14:27:12.432Z,2.80
2023-05-01T14:32:16.153Z,4.00
2023-05-01T14:37:18.490Z,3.58
2023-05-01T14:42:20.171Z,25.83
2023-05-01T14:47:22.307Z,3.95
2023-05-01T14:52:29.560Z,4.65
2023-05-01T14:57:31.291Z,6.38
2023-05-01T15:02:35.600Z,2.65
2023-05-01T15:07:38.704Z,3.13
2023-05-01T15:12:48.039Z,2.90
2023-05-01T15:17:49.786Z,2.70
2023-05-01T15:22:51.508Z,2.65
2023-05-01T15:27:55.437Z,2.42
2023-05-01T15:32:57.435Z,2.00
2023-05-01T15:38:04.271Z,1.92
2023-05-01T15:43:06.643Z,1.85
2023-05-01T15:48:08.426Z,1.65
2023-05-01T15:53:10.434Z,2.30
2023-05-01T15:58:12.156Z,1.90
2023-05-01T16:03:14.064Z,1.80
2023-05-01T16:08:17.471Z,1.40
2023-05-01T16:13:19.255Z,1.75
2023-05-01T16:18:24.998Z,3.25
2023-05-01T16:23:27.217Z,8.23
2023-05-01T16:28:31.198Z,1.67
2023-05-01T16:33:33.797Z,1.60
2023-05-01T16:38:36.748Z,1.65
2023-05-01T16:43:38.452Z,1.48
2023-05-01T16:48:42.435Z,1.90
2023-05-01T16:53:44.126Z,1.90
2023-05-01T16:58:46.331Z,4.28
2023-05-01T17:03:50.406Z,2.10
2023-05-01T17:08:54.757Z,1.63
2023-05-01T17:13:58.878Z,1.45
2023-05-01T17:19:01.526Z,1.50
2023-05-01T17:24:05.558Z,1.38
2023-05-01T17:29:07.233Z,1.60
2023-05-01T17:34:11.237Z,1.80
2023-05-01T17:39:15.365Z,2.00
2023-05-01T17:44:17.485Z,1.90
2023-05-01T17:49:19.490Z,2.10
2023-05-01T17:54:23.640Z,1.83
2023-05-01T17:59:30.528Z,2.10
2023-05-01T18:04:36.142Z,2.50
2023-05-01T18:09:38.499Z,2.42
2023-05-01T18:14:40.497Z,3.55
2023-05-01T18:19:42.168Z,3.55
2023-05-01T18:24:43.904Z,5.18
2023-05-01T18:29:45.825Z,5.45
2023-05-01T18:34:52.313Z,5.90
2023-05-01T18:39:54.136Z,7.80
2023-05-01T18:44:57.845Z,9.60
2023-05-01T18:50:02.214Z,9.38
2023-05-01T18:55:11.316Z,10.50
2023-05-01T19:00:15.139Z,10.45
2023-05-01T19:05:17.588Z,12.43
2023-05-01T19:10:19.383Z,13.35
2023-05-01T19:15:23.308Z,12.85
2023-05-01T19:20:29.533Z,13.20
2023-05-01T19:25:34.257Z,12.55
2023-05-01T19:30:36.133Z,13.63
2023-05-01T19:35:42.617Z,12.07
2023-05-01T19:40:51.650Z,11.10
2023-05-01T19:45:56.649Z,11.93
2023-05-01T19:50:58.373Z,12.93
2023-05-01T19:56:00.737Z,13.48
2023-05-01T20:01:05.012Z,13.48
2023-05-01T20:06:09.502Z,13.73
2023-05-01T20:11:11.333Z,15.07
2023-05-01T20:16:13.149Z,14.88
2023-05-01T20:21:14.873Z,15.95
2023-05-01T20:26:17.656Z,17.42
2023-05-01T20:31:21.613Z,15.80
2023-05-01T20:36:25.275Z,16.35
2023-05-01T20:41:29.178Z,15.48
2023-05-01T20:46:33.282Z,17.05
2023-05-01T20:51:38.397Z,16.10
2023-05-01T20:56:40.099Z,15.40
2023-05-01T21:01:44.155Z,16.38
2023-05-01T21:06:48.593Z,16.10
2023-05-01T21:11:50.546Z,16.88
2023-05-01T21:16:54.941Z,16.45
2023-05-01T21:21:59.714Z,17.85
2023-05-01T21:27:03.842Z,16.40
2023-05-01T21:32:06.217Z,16.88
2023-05-01T21:37:11.068Z,16.75
2023-05-01T21:42:18.179Z,17.27
2023-05-01T21:47:19.868Z,18.42
2023-05-01T21:52:24.068Z,19.95
2023-05-01T21:57:31.943Z,19.95
2023-05-01T22:02:40.427Z,20.02
2023-05-01T22:07:45.158Z,20.50
2023-05-01T22:12:48.813Z,19.42
2023-05-01T22:17:56.610Z,19.27
2023-05-01T22:23:00.972Z,17.33
2023-05-01T22:28:04.385Z,16.38
2023-05-01T22:33:10.804Z,17.15
2023-05-01T22:38:14.965Z,16.23
2023-05-01T22:43:16.702Z,19.70
2023-05-01T22:48:20.908Z,18.60
2023-05-01T22:53:22.590Z,19.70
2023-05-01T22:58:26.595Z,21.40
2023-05-01T23:03:29.067Z,22.80
2023-05-01T23:08:33.628Z,20.98
2023-05-01T23:13:35.325Z,23.52
2023-05-01T23:18:42.058Z,24.98
2023-05-01T23:23:46.805Z,22.23
2023-05-01T23:28:50.813Z,21.23
2023-05-01T23:33:53.316Z,18.33
2023-05-01T23:38:58.056Z,18.20
2023-05-01T23:44:02.494Z,17.95
2023-05-01T23:49:04.465Z,16.38
2023-05-01T23:54:11.701Z,13.02
2023-05-01T23:59:14.816Z,10.75
